Austin, Missouri
Current Conditions -  °F | °C
As of 2:53 PM on Saturday 25 Oct 2014 (Local Time) from KOJC Reporting Station
Clear Clear  
Wind Chill: 80°   Ceiling: Unl
Heat Index: 81°   Visibility: 10mi
Dew Point: 61°   Wind: 6mph
Humidity: 52%   Direction: 140°SE
Pressure: 30.03"   Gusts: NA
Location:  38.5148°N, 94.3768°W
Report Text: KOJC 251953Z 14005KT 10SM CLR 27/16 A3003 RMK AO2 SLP159 T02670161
Loading
Personal Weather Stations






























Interactive Weather Map New forecast layout! Learn more

10-Day Weather Forecast

Advertisements
Track Severe Weather on mobile